Time;durP1;ratioP1;P1;durP2;ratioP2;P2;SDS_P1;SDS_P2;PMS_P1;PMS_P2;Temp;Humidity;BMP_temperature;BMP_pressure;BME280_temperature;BME280_humidity;BME280_pressure;Samples;Min_cycle;Max_cycle;Signal;HPM_P1;HPM_P2
2023/01/16 00:01:21;;;;;;;;;0.00;0.00;;;;;5.29;77.56;98065.72;5095901;28;8904;-60
2023/01/16 00:03:49;;;;;;;;;0.00;0.00;;;;;5.33;77.85;98065.31;5095605;28;8834;-59
2023/01/16 00:06:17;;;;;;;;;0.00;0.00;;;;;5.32;77.47;98074.22;5095961;28;8834;-60
2023/01/16 00:08:46;;;;;;;;;0.00;0.00;;;;;5.28;78.07;98064.06;5095966;28;8876;-58
2023/01/16 00:11:14;;;;;;;;;0.00;0.00;;;;;5.23;78.27;98058.38;5095152;28;8803;-58
2023/01/16 00:13:42;;;;;;;;;0.00;0.00;;;;;5.19;78.23;98055.19;5075349;28;8816;-60
2023/01/16 00:16:09;;;;;;;;;0.00;0.00;;;;;5.17;78.28;98045.72;5075110;28;8820;-60
2023/01/16 00:18:37;;;;;;;;;0.00;0.00;;;;;5.14;78.41;98056.53;5075161;28;8820;-59
2023/01/16 00:21:05;;;;;;;;;0.00;0.00;;;;;5.11;78.66;98056.81;5074855;28;8852;-60
2023/01/16 00:23:33;;;;;;;;;0.00;0.00;;;;;5.08;78.48;98039.44;5074966;28;8820;-60
2023/01/16 00:26:00;;;;;;;;;0.00;0.00;;;;;5.06;78.55;98036.13;5075222;28;9505;-60
2023/01/16 00:28:28;;;;;;;;;0.00;0.00;;;;;5.05;78.76;98038.88;5089291;28;8802;-60
2023/01/16 00:30:56;;;;;;;;;0.00;0.00;;;;;5.03;79.23;98038.19;5095256;28;8833;-59
2023/01/16 00:33:24;;;;;;;;;0.00;0.00;;;;;5.00;79.39;98039.28;5099042;28;8840;-60
2023/01/16 00:35:53;;;;;;;;;0.00;0.00;;;;;4.94;79.81;98033.72;5099102;28;8822;-59
2023/01/16 00:38:21;;;;;;;;;0.00;0.00;;;;;4.89;79.90;98031.50;5099170;28;8840;-59
2023/01/16 00:43:34;;;;;;;;;0.20;0.20;;;;;4.85;80.02;98018.69;5099245;28;8826;-60
2023/01/16 00:46:01;;;;;;;;;0.00;0.00;;;;;4.84;80.81;98009.94;5098944;28;8810;-58
2023/01/16 00:48:29;;;;;;;;;0.00;0.00;;;;;4.85;80.38;98018.69;5099132;28;9519;-59
2023/01/16 00:50:57;;;;;;;;;0.00;0.00;;;;;4.85;80.78;98018.69;5099038;28;8964;-58
2023/01/16 00:53:24;;;;;;;;;0.00;0.00;;;;;4.86;80.79;98017.75;5098806;28;8858;-60
2023/01/16 00:55:53;;;;;;;;;0.00;0.00;;;;;4.83;81.05;98031.16;5098930;28;8830;-57
2023/01/16 00:58:20;;;;;;;;;0.00;0.00;;;;;4.76;80.68;97996.63;5097924;28;8807;-59
2023/01/16 01:00:49;;;;;;;;;0.00;0.00;;;;;4.67;81.25;97993.94;5098341;28;8821;-60
2023/01/16 01:03:17;;;;;;;;;0.00;0.00;;;;;4.61;81.25;97999.72;5098782;28;8954;-59
2023/01/16 01:05:44;;;;;;;;;0.00;0.00;;;;;4.57;82.03;98008.88;5098735;28;8830;-59
2023/01/16 01:08:12;;;;;;;;;0.00;0.00;;;;;4.50;81.91;97995.38;5098874;28;8833;-59
2023/01/16 01:10:40;;;;;;;;;0.00;0.00;;;;;4.45;82.16;97986.22;5098342;28;8821;-58
2023/01/16 01:13:08;;;;;;;;;0.00;0.00;;;;;4.38;82.11;97987.72;5098439;28;9566;-58
2023/01/16 01:15:35;;;;;;;;;0.00;0.00;;;;;4.33;81.83;97984.66;5098309;28;8799;-59
2023/01/16 01:18:03;;;;;;;;;0.00;0.00;;;;;4.30;81.84;97982.28;5098497;28;8822;-58
2023/01/16 01:20:31;;;;;;;;;0.00;0.00;;;;;4.28;81.84;97981.56;5098427;28;8834;-58
2023/01/16 01:22:59;;;;;;;;;0.00;0.00;;;;;4.27;81.62;97982.53;5097966;28;8852;-58
2023/01/16 01:25:27;;;;;;;;;0.00;0.00;;;;;4.25;81.62;97972.13;5097987;28;8842;-58
2023/01/16 01:27:54;;;;;;;;;0.00;0.00;;;;;4.23;81.55;97957.41;5097732;28;8806;-58
2023/01/16 01:30:22;;;;;;;;;0.40;0.40;;;;;4.20;82.01;97957.69;5098154;28;8842;-56
2023/01/16 01:32:50;;;;;;;;;0.00;0.00;;;;;4.18;81.90;97949.09;5097718;28;8859;-57
2023/01/16 01:35:19;;;;;;;;;0.00;0.00;;;;;4.14;82.19;97958.22;5097487;28;8860;-57
2023/01/16 01:37:47;;;;;;;;;0.00;0.00;;;;;4.11;82.01;97950.59;5097720;28;8806;-57
2023/01/16 01:40:14;;;;;;;;;0.00;0.00;;;;;4.07;82.21;97938.63;5097667;28;8829;-57
2023/01/16 01:42:51;;;;;;;;;0.00;0.00;;;;;4.02;82.22;97928.50;5097424;28;8810;-57
2023/01/16 01:45:19;;;;;;;;;0.00;0.00;;;;;3.98;82.37;97921.00;5097896;28;8966;-57
2023/01/16 01:47:48;;;;;;;;;0.00;0.00;;;;;3.96;82.22;97920.31;5097584;28;8826;-57
2023/01/16 01:50:16;;;;;;;;;0.00;0.00;;;;;3.96;82.36;97920.31;5097441;28;8850;-57
2023/01/16 01:52:44;;;;;;;;;0.00;0.00;;;;;3.99;82.28;97914.75;5096560;28;8860;-57
2023/01/16 01:55:11;;;;;;;;;0.00;0.00;;;;;4.01;81.96;97905.78;5097187;28;8818;-56
2023/01/16 01:57:39;;;;;;;;;0.00;0.00;;;;;4.03;82.31;97901.19;5097358;28;8806;-56
2023/01/16 02:00:07;;;;;;;;;0.00;0.00;;;;;4.05;82.16;97896.63;5096230;28;8870;-57
2023/01/16 02:02:35;;;;;;;;;0.00;0.00;;;;;4.09;82.15;97887.50;5096325;28;9537;-57
2023/01/16 02:05:02;;;;;;;;;0.00;0.00;;;;;4.12;82.19;97886.41;5096405;28;8952;-57
2023/01/16 02:07:30;;;;;;;;;0.00;0.00;;;;;4.12;82.29;97875.88;5096809;28;8922;-57
2023/01/16 02:09:58;;;;;;;;;0.00;0.00;;;;;4.12;82.41;97874.06;5097213;28;8830;-57
2023/01/16 02:12:26;;;;;;;;;0.00;0.00;;;;;4.14;82.07;97860.78;5096727;28;8829;-57
2023/01/16 02:14:53;;;;;;;;;0.00;0.00;;;;;4.16;82.02;97861.47;5096459;28;8844;-56
2023/01/16 02:20:06;;;;;;;;;0.00;0.00;;;;;4.25;82.07;97850.16;5096832;28;8818;-56
2023/01/16 02:22:34;;;;;;;;;0.00;0.00;;;;;4.28;82.37;97844.59;5096716;28;8818;-57
2023/01/16 02:25:01;;;;;;;;;0.00;0.00;;;;;4.34;81.83;97842.25;5096741;28;8830;-58
2023/01/16 02:27:29;;;;;;;;;0.00;0.00;;;;;4.44;81.83;97839.66;5096826;28;9464;-58
2023/01/16 02:29:56;;;;;;;;;0.00;0.00;;;;;4.51;81.61;97841.63;5096851;28;8837;-58
2023/01/16 02:32:25;;;;;;;;;0.00;0.00;;;;;4.56;81.44;97834.13;5096460;28;8818;-57
2023/01/16 02:34:52;;;;;;;;;0.00;0.00;;;;;4.57;81.25;97819.97;5095836;28;8909;-58
2023/01/16 02:37:20;;;;;;;;;0.00;0.00;;;;;4.55;81.13;97813.16;5096730;28;8848;-58
2023/01/16 02:39:47;;;;;;;;;0.00;0.00;;;;;4.52;81.28;97803.75;5096518;28;8879;-57
2023/01/16 02:42:15;;;;;;;;;0.00;0.00;;;;;4.51;81.13;97802.09;5096672;28;8830;-57
2023/01/16 02:44:44;;;;;;;;;0.00;0.00;;;;;4.46;81.29;97788.50;5096941;28;8822;-57
2023/01/16 02:47:12;;;;;;;;;0.00;0.00;;;;;4.39;81.48;97792.63;5096626;28;8822;-57
2023/01/16 02:49:40;;;;;;;;;0.00;0.00;;;;;4.35;82.02;97793.88;5096669;28;9547;-58
2023/01/16 02:52:07;;;;;;;;;0.00;0.00;;;;;4.33;81.42;97785.28;5096777;28;8862;-58
2023/01/16 02:54:35;;;;;;;;;0.00;0.00;;;;;4.30;82.06;97784.72;5095888;28;8888;-57
2023/01/16 02:57:03;;;;;;;;;0.00;0.00;;;;;4.28;81.98;97776.13;5096130;28;8802;-56
2023/01/16 02:59:31;;;;;;;;;0.00;0.00;;;;;4.31;81.85;97770.56;5096308;28;8840;-57
2023/01/16 03:01:58;;;;;;;;;0.00;0.00;;;;;4.37;81.65;97770.88;5096606;28;8818;-57
2023/01/16 03:04:26;;;;;;;;;0.00;0.00;;;;;4.42;81.48;97757.28;5096183;28;8940;-57
2023/01/16 03:06:54;;;;;;;;;0.00;0.00;;;;;4.45;81.82;97757.84;5096340;28;8934;-58
2023/01/16 03:09:23;;;;;;;;;0.00;0.00;;;;;4.48;81.41;97747.03;5096306;28;8826;-57
2023/01/16 03:11:51;;;;;;;;;0.80;0.00;;;;;4.51;82.03;97745.91;5096489;28;8853;-58
2023/01/16 03:14:18;;;;;;;;;0.00;0.00;;;;;4.53;81.24;97743.97;5096388;28;8819;-57
2023/01/16 03:16:46;;;;;;;;;0.00;0.00;;;;;4.54;81.54;97728.03;5096018;28;8818;-58
2023/01/16 03:19:14;;;;;;;;;0.00;0.00;;;;;4.58;81.40;97731.22;5096145;28;8829;-57
2023/01/16 03:21:42;;;;;;;;;0.00;0.00;;;;;4.60;81.48;97721.34;5095907;28;8826;-56
2023/01/16 03:24:09;;;;;;;;;0.00;0.00;;;;;4.59;81.64;97719.69;5095786;28;8833;-56
2023/01/16 03:26:37;;;;;;;;;0.00;0.00;;;;;4.57;81.67;97724.28;5095606;28;9612;-58
2023/01/16 03:29:05;;;;;;;;;0.00;0.00;;;;;4.55;81.87;97721.78;5095541;28;8822;-57
2023/01/16 03:31:34;;;;;;;;;0.40;0.40;;;;;4.54;81.64;97714.84;5096106;28;8838;-57
2023/01/16 03:34:03;;;;;;;;;0.00;0.00;;;;;4.51;81.73;97707.25;5095868;28;8826;-56
2023/01/16 03:36:30;;;;;;;;;0.00;0.00;;;;;4.50;81.89;97710.00;5095695;28;8837;-56
2023/01/16 03:38:58;;;;;;;;;0.00;0.00;;;;;4.48;82.11;97704.06;5096027;28;8817;-58
2023/01/16 03:41:26;;;;;;;;;0.00;0.00;;;;;4.44;81.89;97700.84;5096397;28;8822;-58
2023/01/16 03:43:53;;;;;;;;;0.00;0.00;;;;;4.44;81.83;97705.28;5095821;28;8822;-58
2023/01/16 03:46:21;;;;;;;;;0.00;0.00;;;;;4.40;82.30;97696.81;5096243;28;9534;-58
2023/01/16 03:48:49;;;;;;;;;0.00;0.00;;;;;4.40;81.81;97696.81;5095592;28;8926;-57
2023/01/16 03:51:16;;;;;;;;;0.00;0.00;;;;;4.39;81.93;97695.16;5095915;28;8896;-58
2023/01/16 03:53:44;;;;;;;;;0.00;0.00;;;;;4.37;82.32;97677.84;5095427;28;8838;-57
2023/01/16 03:56:12;;;;;;;;;0.00;0.00;;;;;4.36;81.89;97676.16;5096016;28;9507;-58
2023/01/16 03:58:49;;;;;;;;;0.00;0.00;;;;;4.34;81.94;97664.94;5095713;28;8834;-58
2023/01/16 04:01:17;;;;;;;;;0.00;0.00;;;;;4.33;82.52;97668.56;5095437;28;8837;-58
2023/01/16 04:03:45;;;;;;;;;0.00;0.00;;;;;4.32;82.28;97649.28;5095681;28;8919;-57
2023/01/16 04:06:12;;;;;;;;;0.00;0.00;;;;;4.29;82.63;97646.94;5097363;28;8887;-58
2023/01/16 04:08:40;;;;;;;;;0.00;0.00;;;;;4.24;82.30;97638.63;5099736;28;8833;-57
2023/01/16 04:11:10;;;;;;;;;0.00;0.00;;;;;4.24;82.69;97621.97;5099347;28;9538;-57
2023/01/16 04:13:37;;;;;;;;;0.00;0.00;;;;;4.21;82.22;97627.53;5099431;28;9496;-57
2023/01/16 04:16:05;;;;;;;;;0.00;0.00;;;;;4.20;82.28;97620.59;5099382;28;8842;-58
2023/01/16 04:18:32;;;;;;;;;0.00;0.00;;;;;4.19;82.02;97609.22;5098865;28;8810;-57
2023/01/16 04:21:00;;;;;;;;;0.00;0.00;;;;;4.19;82.64;97608.41;5099516;28;8838;-57
2023/01/16 04:23:28;;;;;;;;;0.00;0.00;;;;;4.19;82.57;97608.41;5099163;28;8877;-57
2023/01/16 04:25:56;;;;;;;;;0.00;0.00;;;;;4.19;81.92;97601.31;5099043;28;8818;-56
2023/01/16 04:28:23;;;;;;;;;0.00;0.00;;;;;4.20;82.03;97589.00;5098576;28;8845;-57
2023/01/16 04:30:51;;;;;;;;;0.00;0.00;;;;;4.24;82.10;97591.19;5099136;28;8915;-57
2023/01/16 04:33:20;;;;;;;;;0.00;0.00;;;;;4.31;82.46;97586.19;5099053;28;8826;-56
2023/01/16 04:35:47;;;;;;;;;0.00;0.00;;;;;4.33;82.02;97574.56;5098735;28;8826;-58
2023/01/16 04:38:15;;;;;;;;;0.00;0.00;;;;;4.35;81.80;97571.78;5098685;28;8858;-57
2023/01/16 04:40:42;;;;;;;;;0.00;0.00;;;;;4.38;82.25;97558.31;5098566;28;8817;-58
2023/01/16 04:43:10;;;;;;;;;0.00;0.00;;;;;4.42;81.90;97562.34;5098635;28;8813;-57
2023/01/16 04:45:39;;;;;;;;;0.00;0.00;;;;;4.41;81.60;97548.31;5098904;28;8833;-58
2023/01/16 04:48:07;;;;;;;;;0.00;0.00;;;;;4.36;81.62;97532.13;5098323;28;8826;-58
2023/01/16 04:50:34;;;;;;;;;0.00;0.00;;;;;4.32;82.47;97532.53;5098537;28;8826;-59
2023/01/16 04:53:02;;;;;;;;;0.00;0.00;;;;;4.29;82.14;97524.94;5098498;28;8822;-57
2023/01/16 04:55:30;;;;;;;;;0.00;0.00;;;;;4.26;82.04;97523.41;5098651;28;8817;-58
2023/01/16 04:57:58;;;;;;;;;0.00;0.00;;;;;4.26;81.99;97514.69;5097880;28;8810;-57
2023/01/16 05:00:26;;;;;;;;;0.00;0.00;;;;;4.28;82.14;97507.47;5098030;28;8834;-59
2023/01/16 05:02:53;;;;;;;;;0.00;0.00;;;;;4.29;82.13;97507.34;5097994;28;8905;-58
2023/01/16 05:05:21;;;;;;;;;0.00;0.00;;;;;4.34;82.07;97501.63;5098262;28;8830;-56
2023/01/16 05:08:15;;;;;;;;;0.00;0.00;;;;;4.38;81.96;97487.19;5097864;28;8829;-57
2023/01/16 05:10:37;;;;;;;;;0.00;0.00;;;;;4.39;81.89;97473.88;5098216;28;8821;-58
2023/01/16 05:13:04;;;;;;;;;0.00;0.00;;;;;4.39;82.25;97473.88;5097775;28;8821;-58
2023/01/16 05:15:32;;;;;;;;;0.00;0.00;;;;;4.39;82.37;97462.50;5097912;28;8822;-58
2023/01/16 05:18:00;;;;;;;;;0.00;0.00;;;;;4.40;81.96;97453.66;5096734;28;8911;-58
2023/01/16 05:20:28;;;;;;;;;0.00;0.00;;;;;4.40;81.68;97443.13;5098219;28;8831;-58
2023/01/16 05:22:56;;;;;;;;;0.00;0.00;;;;;4.40;81.89;97443.94;5097834;28;8898;-58
2023/01/16 05:25:23;;;;;;;;;0.00;0.00;;;;;4.40;81.81;97436.03;5097936;28;8833;-57
2023/01/16 05:27:51;;;;;;;;;0.00;0.00;;;;;4.39;82.13;97423.84;5097724;28;8856;-58
2023/01/16 05:30:19;;;;;;;;;0.00;0.00;;;;;4.40;82.20;97417.59;5097450;28;8818;-59
2023/01/16 05:32:46;;;;;;;;;0.00;0.00;;;;;4.42;82.54;97406.91;5097777;28;9476;-57
2023/01/16 05:35:15;;;;;;;;;0.00;0.00;;;;;4.44;81.87;97402.31;5097093;28;9523;-58
2023/01/16 05:37:43;;;;;;;;;0.00;0.00;;;;;4.45;82.14;97388.16;5097968;28;8837;-58
2023/01/16 05:40:11;;;;;;;;;0.00;0.00;;;;;4.45;81.85;97377.63;5097801;28;9500;-58
2023/01/16 05:42:38;;;;;;;;;0.00;0.00;;;;;4.48;81.80;97374.72;5097566;28;8818;-56
2023/01/16 05:45:06;;;;;;;;;0.00;0.00;;;;;4.55;81.60;97365.22;5097638;28;8834;-58
2023/01/16 05:47:34;;;;;;;;;0.00;0.00;;;;;4.61;81.83;97357.56;5097253;28;8838;-58
2023/01/16 05:50:02;;;;;;;;;0.80;0.80;;;;;4.64;81.18;97354.63;5096492;28;8810;-57
2023/01/16 05:52:29;;;;;;;;;0.00;0.00;;;;;4.70;81.06;97355.81;5097001;28;8818;-58
2023/01/16 05:54:57;;;;;;;;;0.00;0.00;;;;;4.75;81.04;97343.03;5096598;28;8806;-58
2023/01/16 05:57:25;;;;;;;;;0.00;0.00;;;;;4.77;81.33;97341.06;5096850;28;8834;-58
2023/01/16 05:59:54;;;;;;;;;0.00;0.00;;;;;4.80;80.88;97332.88;5096420;28;8842;-57
2023/01/16 06:02:22;;;;;;;;;0.00;0.00;;;;;4.82;81.16;97344.09;5095885;28;8825;-57
2023/01/16 06:04:49;;;;;;;;;0.00;0.00;;;;;4.84;81.05;97336.88;5095883;28;8852;-56
2023/01/16 06:07:17;;;;;;;;;0.00;0.00;;;;;4.85;81.11;97331.44;5094912;28;8826;-59
2023/01/16 06:09:45;;;;;;;;;0.00;0.00;;;;;4.89;81.03;97324.06;5094655;28;8853;-57
2023/01/16 06:12:13;;;;;;;;;0.00;0.00;;;;;4.91;81.31;97316.84;5095000;28;8826;-56
2023/01/16 06:14:40;;;;;;;;;0.00;0.00;;;;;4.92;81.13;97307.94;5095281;28;8832;-57
2023/01/16 06:17:08;;;;;;;;;0.00;0.00;;;;;4.96;80.81;97304.03;5095474;28;8829;-58
2023/01/16 06:19:36;;;;;;;;;0.00;0.00;;;;;4.98;81.04;97297.63;5094908;28;8810;-58
2023/01/16 06:22:04;;;;;;;;;0.60;0.00;;;;;5.00;80.61;97274.56;5095038;28;8846;-57
2023/01/16 06:24:32;;;;;;;;;0.00;0.00;;;;;5.02;81.00;97272.59;5095903;28;8826;-58
2023/01/16 06:27:00;;;;;;;;;0.00;0.00;;;;;5.03;80.93;97263.69;5095667;28;8830;-56
2023/01/16 06:29:27;;;;;;;;;0.00;0.00;;;;;5.06;80.71;97252.03;5095298;28;8844;-56
2023/01/16 06:31:55;;;;;;;;;0.00;0.00;;;;;5.10;80.31;97264.75;5095123;28;8830;-57
2023/01/16 06:34:23;;;;;;;;;0.00;0.00;;;;;5.13;80.34;97255.69;5094365;28;8834;-59
2023/01/16 06:36:51;;;;;;;;;0.00;0.00;;;;;5.12;80.31;97256.69;5094692;28;8848;-59
2023/01/16 06:39:19;;;;;;;;;0.00;0.00;;;;;5.15;80.04;97243.19;5093861;28;9533;-59
2023/01/16 06:41:47;;;;;;;;;0.00;0.00;;;;;5.18;80.53;97233.16;5093651;28;8851;-59
2023/01/16 06:44:14;;;;;;;;;0.00;0.00;;;;;5.19;80.22;97218.16;5092869;28;8834;-58
2023/01/16 06:46:42;;;;;;;;;1.80;0.00;;;;;5.21;79.70;97209.13;5093425;28;8822;-58
2023/01/16 06:49:11;;;;;;;;;0.00;0.00;;;;;5.25;80.01;97218.34;5093005;28;8860;-58
2023/01/16 06:51:38;;;;;;;;;0.00;0.00;;;;;5.29;80.16;97210.97;5093006;28;8872;-57
2023/01/16 06:54:07;;;;;;;;;0.00;0.00;;;;;5.31;79.96;97211.66;5092427;28;8845;-56
2023/01/16 06:56:34;;;;;;;;;0.00;0.00;;;;;5.31;80.06;97203.75;5092373;28;8853;-56
2023/01/16 06:59:04;;;;;;;;;0.00;0.00;;;;;5.33;79.73;97199.13;5092095;28;8942;-56
2023/01/16 07:01:32;;;;;;;;;0.00;0.00;;;;;5.33;79.93;97191.22;5091625;28;8821;-58
2023/01/16 07:04:00;;;;;;;;;0.00;0.00;;;;;5.32;80.25;97185.09;5090492;28;8857;-59
2023/01/16 07:06:28;;;;;;;;;0.00;0.00;;;;;5.33;79.78;97180.66;5090462;28;9508;-59
2023/01/16 07:08:56;;;;;;;;;0.00;0.00;;;;;5.33;79.77;97167.47;5090007;28;9722;-59
2023/01/16 07:11:24;;;;;;;;;0.00;0.00;;;;;5.32;80.06;97161.34;5090811;28;8864;-59
2023/01/16 07:22:34;;;;;;;;;0.00;0.00;;;;;5.33;79.89;97163.00;5091598;28;8960;-57
2023/01/16 07:24:57;;;;;;;;;0.00;0.00;;;;;5.38;79.44;97109.78;5092402;28;8992;-59
2023/01/16 07:27:25;;;;;;;;;0.00;0.00;;;;;5.41;79.22;97098.91;5093158;28;8829;-59
2023/01/16 07:29:53;;;;;;;;;0.00;0.00;;;;;5.42;79.29;97090.84;5093210;28;8842;-59
2023/01/16 07:32:20;;;;;;;;;0.00;0.00;;;;;5.46;79.17;97086.06;5092884;28;8866;-59
2023/01/16 07:34:48;;;;;;;;;1.00;1.00;;;;;5.49;78.82;97072.53;5093288;28;8949;-59
2023/01/16 07:37:16;;;;;;;;;0.00;0.00;;;;;5.52;79.12;97088.03;5092854;28;9488;-59
2023/01/16 07:39:44;;;;;;;;;0.00;0.00;;;;;5.54;78.73;97078.97;5092773;28;8826;-58
2023/01/16 07:42:11;;;;;;;;;0.00;0.00;;;;;5.55;79.00;97067.44;5096496;28;9196;-59
2023/01/16 07:44:39;;;;;;;;;0.00;0.00;;;;;5.57;78.61;97062.00;5096863;28;8846;-59
2023/01/16 07:47:07;;;;;;;;;0.00;0.00;;;;;5.58;78.98;97056.56;5096138;28;8931;-59
2023/01/16 07:49:35;;;;;;;;;0.00;0.00;;;;;5.63;78.66;97056.09;5094959;28;8834;-59
2023/01/16 07:52:03;;;;;;;;;0.80;0.00;;;;;5.65;78.47;97033.00;5093906;28;8865;-59
2023/01/16 07:54:31;;;;;;;;;0.00;0.00;;;;;5.66;78.33;97027.56;5092992;28;8850;-59
2023/01/16 07:56:58;;;;;;;;;0.00;0.00;;;;;5.68;78.18;97022.13;5092742;28;8861;-59
2023/01/16 07:59:26;;;;;;;;;0.00;0.00;;;;;5.69;78.20;97010.56;5094347;28;8861;-59
2023/01/16 08:01:54;;;;;;;;;0.00;0.00;;;;;5.74;77.88;97018.81;5095056;28;8934;-59
2023/01/16 08:04:22;;;;;;;;;0.00;0.00;;;;;5.75;77.91;97005.44;5095108;28;9583;-59
2023/01/16 08:06:49;;;;;;;;;0.00;0.00;;;;;5.78;78.16;97005.09;5095222;28;8876;-58
2023/01/16 08:09:17;;;;;;;;;0.00;0.00;;;;;5.81;77.93;96998.72;5094238;28;8838;-59
2023/01/16 08:11:47;;;;;;;;;0.00;0.00;;;;;5.78;77.90;96997.19;5094652;28;8829;-59
2023/01/16 08:14:15;;;;;;;;;0.00;0.00;;;;;5.75;77.72;96994.88;5094806;28;8837;-58
2023/01/16 08:16:43;;;;;;;;;0.00;0.00;;;;;5.74;78.07;96987.13;5095646;28;8964;-60
2023/01/16 08:19:11;;;;;;;;;0.60;0.60;;;;;5.73;78.27;96983.69;5095456;28;8868;-59
2023/01/16 08:21:38;;;;;;;;;0.00;0.00;;;;;5.73;78.00;96977.56;5096250;28;8923;-59
2023/01/16 08:24:06;;;;;;;;;0.00;0.00;;;;;5.74;78.13;96960.72;5096405;28;8834;-59
2023/01/16 08:26:34;;;;;;;;;0.00;0.00;;;;;5.74;77.91;96950.16;5096674;28;9511;-59
2023/01/16 08:29:02;;;;;;;;;0.00;0.00;;;;;5.77;77.67;96950.66;5097315;28;8957;-59
2023/01/16 08:31:30;;;;;;;;;0.60;0.60;;;;;5.79;78.02;96937.31;5097431;28;8957;-59
2023/01/16 08:33:58;;;;;;;;;0.00;0.00;;;;;5.81;77.77;96932.72;5096118;28;8976;-59
2023/01/16 08:36:26;;;;;;;;;0.20;0.20;;;;;5.82;77.77;96921.16;5096005;28;8977;-59
2023/01/16 08:38:54;;;;;;;;;0.00;0.00;;;;;5.82;77.86;96910.59;5096107;28;8842;-59
2023/01/16 08:52:24;;;;;;;;;0.00;0.00;;;;;5.46;78.76;96875.00;5094451;28;8922;-59
2023/01/16 08:54:51;;;;;;;;;0.00;0.00;;;;;5.38;79.00;96877.63;5095795;28;8842;-59
2023/01/16 08:57:19;;;;;;;;;0.00;0.00;;;;;5.34;79.44;96865.75;5095655;28;8856;-59
2023/01/16 08:59:47;;;;;;;;;0.60;0.00;;;;;5.30;79.84;96857.34;5096437;28;8818;-60
2023/01/16 09:02:15;;;;;;;;;0.00;0.00;;;;;5.27;80.11;96860.31;5096510;28;9653;-59
2023/01/16 09:04:44;;;;;;;;;0.00;0.00;;;;;5.27;79.90;96859.47;5096379;28;8841;-59
2023/01/16 09:07:12;;;;;;;;;1.00;0.00;;;;;5.27;80.07;96848.94;5096075;28;8845;-57
2023/01/16 09:09:41;;;;;;;;;0.00;0.00;;;;;5.28;79.92;96851.41;5095154;28;8838;-59
2023/01/16 09:14:56;;;;;;;;;0.00;0.00;;;;;5.35;80.35;96851.56;5095488;28;8964;-59
2023/01/16 09:17:24;;;;;;;;;0.00;0.00;;;;;5.40;80.30;96849.28;5095976;28;8841;-59
2023/01/16 09:19:52;;;;;;;;;0.00;0.00;;;;;5.45;79.45;96828.47;5095937;28;8871;-57
2023/01/16 09:22:20;;;;;;;;;0.00;0.00;;;;;5.52;79.63;96824.16;5095178;28;9554;-59
2023/01/16 09:24:47;;;;;;;;;0.00;0.00;;;;;5.58;79.41;96820.88;5093883;28;8822;-59
2023/01/16 09:27:18;;;;;;;;;0.00;0.00;;;;;5.63;79.54;96805.38;5093323;28;8818;-59
2023/01/16 09:29:46;;;;;;;;;0.00;0.00;;;;;5.69;79.56;96802.06;5093039;28;8846;-58
2023/01/16 09:32:14;;;;;;;;;0.00;0.00;;;;;5.74;79.37;96812.91;5092574;28;8842;-59
2023/01/16 09:34:42;;;;;;;;;0.00;0.00;;;;;5.77;79.08;96794.91;5092183;28;8924;-59
2023/01/16 09:37:10;;;;;;;;;0.00;0.00;;;;;5.82;79.13;96790.00;5092821;28;8964;-57
2023/01/16 09:39:38;;;;;;;;;0.00;0.00;;;;;5.86;79.27;96793.94;5092188;28;8829;-59
2023/01/16 09:44:52;;;;;;;;;1.00;1.00;;;;;5.94;78.80;96769.31;5092693;28;8984;-60
2023/01/16 09:47:20;;;;;;;;;0.00;0.00;;;;;5.95;78.36;96773.59;5092223;28;8967;-59
2023/01/16 09:49:48;;;;;;;;;0.00;0.00;;;;;5.94;77.96;96777.25;5092126;28;8845;-59
2023/01/16 10:00:40;;;;;;;;;0.00;0.00;;;;;5.89;78.14;96742.59;5073193;28;8846;-59
2023/01/16 10:03:08;;;;;;;;;0.00;0.00;;;;;5.87;78.12;96739.31;5071915;28;8855;-56
2023/01/16 10:05:36;;;;;;;;;0.00;0.00;;;;;5.85;78.19;96741.31;5071694;28;8962;-57
2023/01/16 10:08:04;;;;;;;;;0.00;0.00;;;;;5.85;78.13;96733.41;5072319;28;8828;-60
2023/01/16 10:10:32;;;;;;;;;0.00;0.00;;;;;5.85;78.00;96720.19;5072431;28;8836;-60
2023/01/16 10:13:00;;;;;;;;;0.00;0.00;;;;;5.83;78.24;96725.63;5072121;28;8832;-58
2023/01/16 10:15:30;;;;;;;;;0.00;0.00;;;;;5.80;78.29;96719.88;5073034;28;8881;-59
2023/01/16 10:17:58;;;;;;;;;0.40;0.00;;;;;5.78;78.00;96708.66;5073412;28;8820;-59
2023/01/16 10:20:26;;;;;;;;;0.00;0.00;;;;;5.78;78.17;96700.72;5073543;28;8840;-59
2023/01/16 10:22:54;;;;;;;;;0.00;0.00;;;;;5.77;78.34;96694.59;5073736;28;8844;-59
2023/01/16 10:25:22;;;;;;;;;0.00;0.00;;;;;5.73;78.11;96708.31;5074005;28;8929;-59
2023/01/16 10:27:50;;;;;;;;;0.00;0.00;;;;;5.65;77.79;96700.44;5074012;28;8840;-59
2023/01/16 10:30:18;;;;;;;;;0.00;0.00;;;;;5.55;78.57;96694.56;5074349;28;8852;-59
2023/01/16 10:32:46;;;;;;;;;0.00;0.00;;;;;5.48;78.28;96685.69;5073460;28;8855;-59
2023/01/16 10:35:14;;;;;;;;;0.00;0.00;;;;;5.42;78.94;96692.47;5073332;28;8981;-59
2023/01/16 10:37:43;;;;;;;;;0.00;0.00;;;;;5.39;78.85;96684.88;5072010;28;8848;-59
2023/01/16 10:40:11;;;;;;;;;0.00;0.00;;;;;5.35;78.86;96682.75;5071975;28;8835;-59
2023/01/16 10:50:57;;;;;;;;;0.00;0.00;;;;;5.25;79.41;96684.75;5072121;28;8872;-60
2023/01/16 10:53:25;;;;;;;;;0.00;0.00;;;;;5.24;79.68;96681.28;5073364;28;8858;-59
2023/01/16 10:55:53;;;;;;;;;0.00;0.00;;;;;5.26;79.32;96681.13;5091673;28;8845;-59
2023/01/16 10:58:21;;;;;;;;;0.00;0.00;;;;;5.28;79.58;96676.50;5092649;28;8822;-60
2023/01/16 11:00:49;;;;;;;;;0.00;0.00;;;;;5.31;79.62;96649.81;5092632;28;8850;-58
2023/01/16 11:03:18;;;;;;;;;0.00;0.00;;;;;5.36;79.14;96660.66;5092493;28;8907;-59
2023/01/16 11:05:46;;;;;;;;;0.00;0.00;;;;;5.43;79.00;96648.41;5091843;28;8907;-57
2023/01/16 11:08:14;;;;;;;;;0.00;0.00;;;;;5.51;79.20;96635.19;5092437;28;8841;-59
2023/01/16 11:10:42;;;;;;;;;0.00;0.00;;;;;5.58;78.60;96644.06;5092814;28;8899;-59
2023/01/16 11:18:50;;;;;;;;;0.00;0.00;;;;;5.85;78.10;96611.97;5093913;28;9626;-59
2023/01/16 11:21:19;;;;;;;;;0.00;0.00;;;;;5.96;77.51;96600.97;5093040;28;8996;-59
2023/01/16 11:23:46;;;;;;;;;0.00;0.00;;;;;6.06;77.74;96594.47;5092584;28;8838;-58
2023/01/16 11:26:15;;;;;;;;;0.00;0.00;;;;;6.13;77.35;96590.13;5093018;28;8826;-59
2023/01/16 11:28:44;;;;;;;;;0.00;0.00;;;;;6.13;77.17;96584.84;5093057;28;8826;-58
2023/01/16 11:31:12;;;;;;;;;0.00;0.00;;;;;6.15;77.01;96593.41;5092797;28;8845;-58
2023/01/16 11:33:40;;;;;;;;;0.00;0.00;;;;;6.17;76.75;96582.69;5092521;28;8830;-58
2023/01/16 11:36:08;;;;;;;;;0.00;0.00;;;;;6.21;77.33;96576.84;5093042;28;9538;-59
2023/01/16 11:38:37;;;;;;;;;0.00;0.00;;;;;6.26;76.56;96576.31;5092230;28;8833;-60
2023/01/16 11:41:07;;;;;;;;;0.00;0.00;;;;;6.29;76.75;96562.78;5093066;28;8834;-60
2023/01/16 11:46:20;;;;;;;;;0.00;0.00;;;;;6.34;76.11;96547.19;5093000;28;8850;-60
2023/01/16 11:48:49;;;;;;;;;0.00;0.00;;;;;6.40;76.31;96542.03;5092517;28;8966;-59
2023/01/16 11:51:17;;;;;;;;;0.00;0.00;;;;;6.44;76.36;96539.84;5092741;28;8857;-59
2023/01/16 11:53:45;;;;;;;;;0.00;0.00;;;;;6.46;76.32;96528.06;5092103;28;8842;-60
2023/01/16 11:56:13;;;;;;;;;0.00;0.00;;;;;6.47;75.93;96524.44;5091502;28;8842;-60
2023/01/16 11:58:41;;;;;;;;;0.00;0.00;;;;;6.49;76.12;96526.91;5091960;28;8848;-59
2023/01/16 12:01:10;;;;;;;;;0.00;0.00;;;;;6.50;75.47;96523.25;5090918;28;8826;-59
2023/01/16 12:03:38;;;;;;;;;0.00;0.00;;;;;6.53;75.81;96512.34;5092065;28;8834;-58
2023/01/16 12:06:06;;;;;;;;;0.00;0.00;;;;;6.59;75.97;96506.31;5092205;28;8842;-58
2023/01/16 12:08:34;;;;;;;;;0.00;0.00;;;;;6.65;75.66;96501.13;5091821;28;8837;-60
2023/01/16 12:11:05;;;;;;;;;0.00;0.00;;;;;6.81;74.90;96479.78;5092170;28;8834;-59
2023/01/16 12:16:18;;;;;;;;;0.00;0.00;;;;;6.93;74.84;96470.38;5091273;28;8875;-59
2023/01/16 12:18:46;;;;;;;;;0.00;0.00;;;;;6.88;74.39;96458.69;5091366;28;8844;-59
2023/01/16 12:21:14;;;;;;;;;0.00;0.00;;;;;6.82;74.86;96457.63;5090626;28;9220;-59
2023/01/16 12:23:45;;;;;;;;;0.00;0.00;;;;;6.81;74.89;96452.53;5091382;28;9012;-59
2023/01/16 12:26:24;;;;;;;;;0.00;0.00;;;;;6.80;74.98;96441.13;5092493;28;8833;-59
2023/01/16 12:28:52;;;;;;;;;0.00;0.00;;;;;6.86;74.06;96436.91;5094268;28;9200;-60
2023/01/16 12:34:02;;;;;;;;;0.00;0.00;;;;;7.42;73.29;96414.97;5094255;28;8841;-60
2023/01/16 12:36:30;;;;;;;;;0.00;0.00;;;;;7.66;72.99;96419.88;5094209;28;8841;-59
2023/01/16 12:38:58;;;;;;;;;0.00;0.00;;;;;7.96;72.36;96407.09;5093492;28;8841;-59
2023/01/16 12:44:12;;;;;;;;;0.00;0.00;;;;;8.35;70.68;96398.63;5093290;28;8903;-59
2023/01/16 12:46:40;;;;;;;;;0.00;0.00;;;;;8.40;71.09;96380.28;5093135;28;8895;-59
2023/01/16 12:49:08;;;;;;;;;0.00;0.00;;;;;8.42;70.98;96384.38;5092105;28;8842;-60
2023/01/16 12:51:36;;;;;;;;;1.00;0.00;;;;;8.44;70.81;96379.69;5092747;28;9309;-59
2023/01/16 12:54:04;;;;;;;;;0.00;0.00;;;;;8.38;70.75;96358.47;5091862;28;8830;-59
2023/01/16 12:56:32;;;;;;;;;0.00;0.00;;;;;8.17;71.57;96354.03;5092015;28;8833;-59
2023/01/16 12:59:00;;;;;;;;;0.00;0.00;;;;;7.82;72.09;96357.66;5091980;28;8864;-59